sensor_id;sensor_type;location;lat;lon;timestamp;pressure;altitude;pressure_sealevel;temperature;humidity
14134;BME280;7147;59.364;18.018;2022-11-04T00:01:31;119207.81;;;-143.32;100.00
14134;BME280;7147;59.364;18.018;2022-11-04T00:03:58;119418.16;;;-143.32;100.00
14134;BME280;7147;59.364;18.018;2022-11-04T00:06:27;119377.78;;;-143.32;100.00
14134;BME280;7147;59.364;18.018;2022-11-04T00:08:55;119445.78;;;-143.32;100.00
14134;BME280;7147;59.364;18.018;2022-11-04T00:11:23;119377.78;;;-143.32;100.00
14134;BME280;7147;59.364;18.018;2022-11-04T00:14:08;118774.41;;;-143.32;100.00
14134;BME280;7147;59.364;18.018;2022-11-04T00:16:35;118629.94;;;-143.32;100.00
14134;BME280;7147;59.364;18.018;2022-11-04T00:19:20;115843.94;;;-143.32;100.00
14134;BME280;7147;59.364;18.018;2022-11-04T00:21:48;115803.59;;;-143.32;100.00
14134;BME280;7147;59.364;18.018;2022-11-04T00:24:35;115979.78;;;-143.32;100.00
14134;BME280;7147;59.364;18.018;2022-11-04T00:27:20;115553.13;;;-143.32;100.00
14134;BME280;7147;59.364;18.018;2022-11-04T00:30:07;114897.34;;;-143.32;100.00
14134;BME280;7147;59.364;18.018;2022-11-04T00:32:34;115075.63;;;-143.32;100.00
14134;BME280;7147;59.364;18.018;2022-11-04T00:35:19;116457.44;;;-143.32;100.00
14134;BME280;7147;59.364;18.018;2022-11-04T00:37:47;117739.97;;;-143.32;100.00
14134;BME280;7147;59.364;18.018;2022-11-04T00:40:15;118328.31;;;-143.32;100.00
14134;BME280;7147;59.364;18.018;2022-11-04T00:42:43;118867.88;;;-143.32;100.00
14134;BME280;7147;59.364;18.018;2022-11-04T00:45:10;119105.81;;;-143.32;100.00
14134;BME280;7147;59.364;18.018;2022-11-04T00:47:37;119433.03;;;-143.32;100.00
14134;BME280;7147;59.364;18.018;2022-11-04T00:50:05;119694.41;;;-143.32;100.00
14134;BME280;7147;59.364;18.018;2022-11-04T00:52:32;119105.81;;;-143.32;100.00
14134;BME280;7147;59.364;18.018;2022-11-04T00:55:00;118290.06;;;-143.32;100.00
14134;BME280;7147;59.364;18.018;2022-11-04T00:57:27;114069.84;;;-143.32;100.00
14134;BME280;7147;59.364;18.018;2022-11-04T00:59:54;111563.03;;;-143.32;100.00
14134;BME280;7147;59.364;18.018;2022-11-04T01:02:21;112631.72;;;-143.32;100.00
14134;BME280;7147;59.364;18.018;2022-11-04T01:04:47;112292.41;;;-143.32;100.00
14134;BME280;7147;59.364;18.018;2022-11-04T01:07:14;112311.50;;;-143.32;100.00
14134;BME280;7147;59.364;18.018;2022-11-04T01:09:41;112296.66;;;-143.32;100.00
14134;BME280;7147;59.364;18.018;2022-11-04T01:12:09;111751.72;;;-143.32;100.00
14134;BME280;7147;59.364;18.018;2022-11-04T01:14:36;113993.47;;;-143.32;100.00
14134;BME280;7147;59.364;18.018;2022-11-04T01:17:03;114267.16;;;-143.32;100.00
14134;BME280;7147;59.364;18.018;2022-11-04T01:19:30;114708.50;;;-143.32;100.00
14134;BME280;7147;59.364;18.018;2022-11-04T01:21:56;114617.25;;;-143.32;100.00
14134;BME280;7147;59.364;18.018;2022-11-04T01:24:23;115043.78;;;-143.32;100.00
14134;BME280;7147;59.364;18.018;2022-11-04T01:26:50;115075.63;;;-143.32;100.00
14134;BME280;7147;59.364;18.018;2022-11-04T01:29:18;115024.69;;;-143.32;100.00
14134;BME280;7147;59.364;18.018;2022-11-04T01:31:44;115266.63;;;-143.32;100.00
14134;BME280;7147;59.364;18.018;2022-11-04T01:34:11;115156.25;;;-143.32;100.00
14134;BME280;7147;59.364;18.018;2022-11-04T01:36:38;115073.50;;;-143.32;100.00
14134;BME280;7147;59.364;18.018;2022-11-04T01:39:08;114880.38;;;-143.32;100.00
14134;BME280;7147;59.364;18.018;2022-11-04T01:41:35;114587.53;;;-143.32;100.00
14134;BME280;7147;59.364;18.018;2022-11-04T01:44:03;114339.28;;;-143.32;100.00
14134;BME280;7147;59.364;18.018;2022-11-04T01:46:52;114610.88;;;-143.32;100.00
14134;BME280;7147;59.364;18.018;2022-11-04T01:49:24;112328.47;;;-143.32;100.00
14134;BME280;7147;59.364;18.018;2022-11-04T01:51:57;115837.56;;;-143.32;100.00
14134;BME280;7147;59.364;18.018;2022-11-04T01:54:26;115440.66;;;-143.32;100.00
14134;BME280;7147;59.364;18.018;2022-11-04T01:56:53;115304.81;;;-143.32;100.00
14134;BME280;7147;59.364;18.018;2022-11-04T01:59:23;114464.47;;;-143.32;100.00
14134;BME280;7147;59.364;18.018;2022-11-04T02:01:53;114506.91;;;-143.32;100.00
14134;BME280;7147;59.364;18.018;2022-11-04T02:04:20;114349.91;;;-143.32;100.00
14134;BME280;7147;59.364;18.018;2022-11-04T02:06:56;114023.16;;;-143.32;100.00
14134;BME280;7147;59.364;18.018;2022-11-04T02:09:24;113658.28;;;-143.32;100.00
14134;BME280;7147;59.364;18.018;2022-11-04T02:11:52;113121.63;;;-143.32;100.00
14134;BME280;7147;59.364;18.018;2022-11-04T02:14:37;113100.41;;;-143.32;100.00
14134;BME280;7147;59.364;18.018;2022-11-04T02:17:13;113335.84;;;-143.32;100.00
14134;BME280;7147;59.364;18.018;2022-11-04T02:20:10;113405.84;;;-143.32;100.00
14134;BME280;7147;59.364;18.018;2022-11-04T02:23:05;109663.97;;;-143.32;100.00
14134;BME280;7147;59.364;18.018;2022-11-04T02:26:03;114205.63;;;-143.32;100.00
14134;BME280;7147;59.364;18.018;2022-11-04T02:29:02;114451.75;;;-143.32;100.00
14134;BME280;7147;59.364;18.018;2022-11-04T02:31:38;114825.19;;;-143.32;100.00
14134;BME280;7147;59.364;18.018;2022-11-04T02:34:12;102936.56;;;-143.32;100.00
14134;BME280;7147;59.364;18.018;2022-11-04T02:36:46;113984.97;;;-143.32;100.00
14134;BME280;7147;59.364;18.018;2022-11-04T02:39:21;103353.22;;;-143.32;100.00
14134;BME280;7147;59.364;18.018;2022-11-04T02:41:55;113908.59;;;-143.32;100.00
14134;BME280;7147;59.364;18.018;2022-11-04T02:44:30;113764.34;;;-143.32;100.00
14134;BME280;7147;59.364;18.018;2022-11-04T02:47:01;114042.25;;;-143.32;100.00
14134;BME280;7147;59.364;18.018;2022-11-04T02:49:33;114485.69;;;-143.32;100.00
14134;BME280;7147;59.364;18.018;2022-11-04T02:52:06;114275.63;;;-143.32;100.00
14134;BME280;7147;59.364;18.018;2022-11-04T02:54:37;114453.88;;;-143.32;100.00
14134;BME280;7147;59.364;18.018;2022-11-04T02:57:09;115253.88;;;-143.32;100.00
14134;BME280;7147;59.364;18.018;2022-11-04T02:59:45;109541.09;;;-143.32;100.00
14134;BME280;7147;59.364;18.018;2022-11-04T03:02:15;115336.66;;;-143.32;100.00
14134;BME280;7147;59.364;18.018;2022-11-04T03:04:46;115326.03;;;-143.32;100.00
14134;BME280;7147;59.364;18.018;2022-11-04T03:07:20;115512.81;;;-143.32;100.00
14134;BME280;7147;59.364;18.018;2022-11-04T03:09:50;115425.78;;;-143.32;100.00
14134;BME280;7147;59.364;18.018;2022-11-04T03:12:24;115799.34;;;-143.32;100.00
14134;BME280;7147;59.364;18.018;2022-11-04T03:14:59;115663.50;;;-143.32;100.00
14134;BME280;7147;59.364;18.018;2022-11-04T03:17:30;115890.63;;;-143.32;100.00
14134;BME280;7147;59.364;18.018;2022-11-04T03:20:00;114536.63;;;-143.32;100.00
14134;BME280;7147;59.364;18.018;2022-11-04T03:22:29;117147.47;;;-143.32;100.00
14134;BME280;7147;59.364;18.018;2022-11-04T03:25:00;116784.38;;;-143.32;100.00
14134;BME280;7147;59.364;18.018;2022-11-04T03:27:32;117073.16;;;-143.32;100.00
14134;BME280;7147;59.364;18.018;2022-11-04T03:30:06;117000.97;;;-143.32;100.00
14134;BME280;7147;59.364;18.018;2022-11-04T03:32:40;116930.88;;;-143.32;100.00
14134;BME280;7147;59.364;18.018;2022-11-04T03:35:09;116890.53;;;-143.32;100.00
14134;BME280;7147;59.364;18.018;2022-11-04T03:37:37;116941.50;;;-143.32;100.00
14134;BME280;7147;59.364;18.018;2022-11-04T03:40:05;117306.75;;;-143.32;100.00
14134;BME280;7147;59.364;18.018;2022-11-04T03:42:35;117432.03;;;-143.32;100.00
14134;BME280;7147;59.364;18.018;2022-11-04T03:45:06;117438.41;;;-143.32;100.00
14134;BME280;7147;59.364;18.018;2022-11-04T03:47:33;118319.81;;;-143.32;100.00
14134;BME280;7147;59.364;18.018;2022-11-04T03:50:05;118311.31;;;-143.32;100.00
14134;BME280;7147;59.364;18.018;2022-11-04T03:52:36;118154.13;;;-143.32;100.00
14134;BME280;7147;59.364;18.018;2022-11-04T03:55:06;118387.78;;;-143.32;100.00
14134;BME280;7147;59.364;18.018;2022-11-04T03:57:41;118865.75;;;-143.32;100.00
14134;BME280;7147;59.364;18.018;2022-11-04T04:00:13;118931.63;;;-143.32;100.00
14134;BME280;7147;59.364;18.018;2022-11-04T04:02:52;119212.06;;;-143.32;100.00
14134;BME280;7147;59.364;18.018;2022-11-04T04:05:25;119331.03;;;-143.32;100.00
14134;BME280;7147;59.364;18.018;2022-11-04T04:07:57;118375.03;;;-143.32;100.00
14134;BME280;7147;59.364;18.018;2022-11-04T04:10:30;118328.31;;;-143.32;100.00
14134;BME280;7147;59.364;18.018;2022-11-04T04:13:15;118022.44;;;-143.32;100.00
14134;BME280;7147;59.364;18.018;2022-11-04T04:15:48;117793.06;;;-143.32;100.00
14134;BME280;7147;59.364;18.018;2022-11-04T04:18:22;116249.38;;;-143.32;100.00
14134;BME280;7147;59.364;18.018;2022-11-04T04:20:53;117240.91;;;-143.32;100.00
14134;BME280;7147;59.364;18.018;2022-11-04T04:23:25;117521.22;;;-143.32;100.00
14134;BME280;7147;59.364;18.018;2022-11-04T04:26:14;117240.91;;;-143.32;100.00
14134;BME280;7147;59.364;18.018;2022-11-04T04:29:00;116973.34;;;-143.32;100.00
14134;BME280;7147;59.364;18.018;2022-11-04T04:31:32;116979.72;;;-143.32;100.00
14134;BME280;7147;59.364;18.018;2022-11-04T04:34:18;117143.22;;;-143.32;100.00
14134;BME280;7147;59.364;18.018;2022-11-04T04:36:50;116623.03;;;-143.32;100.00
14134;BME280;7147;59.364;18.018;2022-11-04T04:39:21;116083.78;;;-143.32;100.00
14134;BME280;7147;59.364;18.018;2022-11-04T04:42:07;116153.84;;;-143.32;100.00
14134;BME280;7147;59.364;18.018;2022-11-04T04:44:51;115801.47;;;-143.32;100.00
14134;BME280;7147;59.364;18.018;2022-11-04T04:47:45;116608.16;;;-143.32;100.00
14134;BME280;7147;59.364;18.018;2022-11-04T04:50:13;116347.03;;;-143.32;100.00
14134;BME280;7147;59.364;18.018;2022-11-04T04:52:43;116979.72;;;-143.32;100.00
14134;BME280;7147;59.364;18.018;2022-11-04T04:55:10;117243.03;;;-143.32;100.00
14134;BME280;7147;59.364;18.018;2022-11-04T04:57:37;117444.78;;;-143.32;100.00
14134;BME280;7147;59.364;18.018;2022-11-04T05:00:07;117442.66;;;-143.32;100.00
14134;BME280;7147;59.364;18.018;2022-11-04T05:02:34;118001.19;;;-143.32;100.00
14134;BME280;7147;59.364;18.018;2022-11-04T05:05:03;117746.34;;;-143.32;100.00
14134;BME280;7147;59.364;18.018;2022-11-04T05:07:30;117822.78;;;-143.32;100.00
14134;BME280;7147;59.364;18.018;2022-11-04T05:09:56;118043.69;;;-143.32;100.00
14134;BME280;7147;59.364;18.018;2022-11-04T05:12:23;117317.34;;;-143.32;100.00
14134;BME280;7147;59.364;18.018;2022-11-04T05:14:50;118018.19;;;-143.32;100.00
14134;BME280;7147;59.364;18.018;2022-11-04T05:17:17;118332.56;;;-143.32;100.00
14134;BME280;7147;59.364;18.018;2022-11-04T05:19:43;118595.97;;;-143.32;100.00
14134;BME280;7147;59.364;18.018;2022-11-04T05:22:12;118634.19;;;-143.32;100.00
14134;BME280;7147;59.364;18.018;2022-11-04T05:24:38;118782.91;;;-143.32;100.00
14134;BME280;7147;59.364;18.018;2022-11-04T05:27:06;118789.28;;;-143.32;100.00
14134;BME280;7147;59.364;18.018;2022-11-04T05:29:33;119416.03;;;-143.32;100.00
14134;BME280;7147;59.364;18.018;2022-11-04T05:32:00;119628.53;;;-143.32;100.00
14134;BME280;7147;59.364;18.018;2022-11-04T05:34:27;119620.03;;;-143.32;100.00
14134;BME280;7147;59.364;18.018;2022-11-04T05:36:53;119590.28;;;-143.32;100.00
14134;BME280;7147;59.364;18.018;2022-11-04T05:39:21;119377.78;;;-143.32;100.00
14134;BME280;7147;59.364;18.018;2022-11-04T05:41:48;119868.66;;;-143.32;100.00
14134;BME280;7147;59.364;18.018;2022-11-04T05:44:15;120423.34;;;-143.32;100.00
14134;BME280;7147;59.364;18.018;2022-11-04T05:46:42;119241.81;;;-143.32;100.00
14134;BME280;7147;59.364;18.018;2022-11-04T05:49:09;118772.28;;;-143.32;100.00
14134;BME280;7147;59.364;18.018;2022-11-04T05:51:36;118644.81;;;-143.32;100.00
14134;BME280;7147;59.364;18.018;2022-11-04T05:54:03;118245.47;;;-143.32;100.00
14134;BME280;7147;59.364;18.018;2022-11-04T05:56:32;118069.16;;;-143.32;100.00
14134;BME280;7147;59.364;18.018;2022-11-04T05:58:59;117782.44;;;-143.32;100.00
14134;BME280;7147;59.364;18.018;2022-11-04T06:01:29;117506.34;;;-143.32;100.00
14134;BME280;7147;59.364;18.018;2022-11-04T06:03:57;117593.44;;;-143.32;100.00
14134;BME280;7147;59.364;18.018;2022-11-04T06:06:26;117523.34;;;-143.32;100.00
14134;BME280;7147;59.364;18.018;2022-11-04T06:08:53;118426.00;;;-143.32;100.00
14134;BME280;7147;59.364;18.018;2022-11-04T06:11:21;118547.09;;;-143.32;100.00
14134;BME280;7147;59.364;18.018;2022-11-04T06:13:50;118062.78;;;-143.32;100.00
14134;BME280;7147;59.364;18.018;2022-11-04T06:16:17;118118.03;;;-143.32;100.00
14134;BME280;7147;59.364;18.018;2022-11-04T06:18:44;117744.22;;;-143.32;100.00
14134;BME280;7147;59.364;18.018;2022-11-04T06:21:20;118882.75;;;-143.32;100.00
14134;BME280;7147;59.364;18.018;2022-11-04T06:23:50;119462.78;;;-143.32;100.00
14134;BME280;7147;59.364;18.018;2022-11-04T06:26:17;119685.91;;;-143.32;100.00
14134;BME280;7147;59.364;18.018;2022-11-04T06:28:44;120066.28;;;-143.32;100.00
14134;BME280;7147;59.364;18.018;2022-11-04T06:31:13;120491.34;;;-143.32;100.00
14134;BME280;7147;59.364;18.018;2022-11-04T06:33:40;120225.69;;;-143.32;100.00
14134;BME280;7147;59.364;18.018;2022-11-04T06:36:10;120331.94;;;-143.32;100.00
14134;BME280;7147;59.364;18.018;2022-11-04T06:38:37;120501.97;;;-143.32;100.00
14134;BME280;7147;59.364;18.018;2022-11-04T06:41:06;118950.75;;;-143.32;100.00
14134;BME280;7147;59.364;18.018;2022-11-04T06:43:33;119766.66;;;-143.32;100.00
14134;BME280;7147;59.364;18.018;2022-11-04T06:46:01;120508.34;;;-143.32;100.00
14134;BME280;7147;59.364;18.018;2022-11-04T06:48:31;119921.78;;;-143.32;100.00
14134;BME280;7147;59.364;18.018;2022-11-04T06:50:59;119335.28;;;-143.32;100.00
14134;BME280;7147;59.364;18.018;2022-11-04T06:53:27;120501.97;;;-143.32;100.00
14134;BME280;7147;59.364;18.018;2022-11-04T06:56:00;119775.16;;;-143.32;100.00
14134;BME280;7147;59.364;18.018;2022-11-04T06:58:28;122032.66;;;-143.32;100.00
14134;BME280;7147;59.364;18.018;2022-11-04T07:00:55;122032.66;;;-143.32;100.00
14134;BME280;7147;59.364;18.018;2022-11-04T07:03:22;122032.66;;;-143.32;100.00
14134;BME280;7147;59.364;18.018;2022-11-04T07:05:50;122032.66;;;-143.32;100.00
14134;BME280;7147;59.364;18.018;2022-11-04T07:08:20;122032.66;;;-143.32;100.00
14134;BME280;7147;59.364;18.018;2022-11-04T07:10:47;122032.66;;;-143.32;100.00
14134;BME280;7147;59.364;18.018;2022-11-04T07:13:15;122032.66;;;-143.32;100.00
14134;BME280;7147;59.364;18.018;2022-11-04T07:15:42;122032.66;;;-143.32;100.00
14134;BME280;7147;59.364;18.018;2022-11-04T07:18:09;122032.66;;;-143.32;100.00
14134;BME280;7147;59.364;18.018;2022-11-04T07:20:36;122032.66;;;-143.32;100.00
14134;BME280;7147;59.364;18.018;2022-11-04T07:23:04;122032.66;;;-143.32;100.00
14134;BME280;7147;59.364;18.018;2022-11-04T07:25:31;122032.66;;;-143.32;100.00
14134;BME280;7147;59.364;18.018;2022-11-04T07:27:58;122032.66;;;-143.32;100.00
14134;BME280;7147;59.364;18.018;2022-11-04T07:30:25;122032.66;;;-143.32;100.00
14134;BME280;7147;59.364;18.018;2022-11-04T07:32:52;122032.66;;;-143.32;100.00
14134;BME280;7147;59.364;18.018;2022-11-04T07:35:19;122032.66;;;-143.32;100.00
14134;BME280;7147;59.364;18.018;2022-11-04T07:37:45;122032.66;;;-143.32;100.00
14134;BME280;7147;59.364;18.018;2022-11-04T07:40:14;122032.66;;;-143.32;100.00
14134;BME280;7147;59.364;18.018;2022-11-04T07:42:41;122032.66;;;-143.32;100.00
14134;BME280;7147;59.364;18.018;2022-11-04T07:45:08;122032.66;;;-143.32;100.00
14134;BME280;7147;59.364;18.018;2022-11-04T07:47:35;122032.66;;;-143.32;100.00
14134;BME280;7147;59.364;18.018;2022-11-04T07:50:02;104774.84;;;-143.32;100.00
14134;BME280;7147;59.364;18.018;2022-11-04T07:52:29;112137.63;;;-143.32;100.00
14134;BME280;7147;59.364;18.018;2022-11-04T07:54:56;111823.81;;;-143.32;100.00
14134;BME280;7147;59.364;18.018;2022-11-04T07:57:24;112809.84;;;-143.32;100.00
14134;BME280;7147;59.364;18.018;2022-11-04T07:59:51;115858.78;;;-143.32;100.00
14134;BME280;7147;59.364;18.018;2022-11-04T08:02:18;117841.91;;;-143.32;100.00
14134;BME280;7147;59.364;18.018;2022-11-04T08:04:46;119212.06;;;-143.32;100.00
14134;BME280;7147;59.364;18.018;2022-11-04T08:07:13;119671.03;;;-143.32;100.00
14134;BME280;7147;59.364;18.018;2022-11-04T08:09:39;120334.06;;;-143.32;100.00
14134;BME280;7147;59.364;18.018;2022-11-04T08:12:06;120742.16;;;-143.32;100.00
14134;BME280;7147;59.364;18.018;2022-11-04T08:14:35;121328.88;;;-143.32;100.00
14134;BME280;7147;59.364;18.018;2022-11-04T08:17:02;121107.78;;;-143.32;100.00
14134;BME280;7147;59.364;18.018;2022-11-04T08:19:29;121027.00;;;-143.32;100.00
14134;BME280;7147;59.364;18.018;2022-11-04T08:21:56;121501.09;;;-143.32;100.00
14134;BME280;7147;59.364;18.018;2022-11-04T08:24:23;121518.09;;;-143.32;100.00
14134;BME280;7147;59.364;18.018;2022-11-04T08:26:50;121543.63;;;-143.32;100.00
14134;BME280;7147;59.364;18.018;2022-11-04T08:29:17;119947.28;;;-143.32;100.00
14134;BME280;7147;59.364;18.018;2022-11-04T08:31:45;121894.44;;;-143.32;100.00
14134;BME280;7147;59.364;18.018;2022-11-04T08:34:12;121862.53;;;-143.32;100.00
14134;BME280;7147;59.364;18.018;2022-11-04T08:36:39;122032.66;;;-143.32;100.00
14134;BME280;7147;59.364;18.018;2022-11-04T08:39:07;121118.41;;;-143.32;100.00
14134;BME280;7147;59.364;18.018;2022-11-04T08:41:35;121141.81;;;-143.32;100.00
14134;BME280;7147;59.364;18.018;2022-11-04T08:44:04;121290.63;;;-143.32;100.00
14134;BME280;7147;59.364;18.018;2022-11-04T08:46:33;121518.09;;;-143.32;100.00
14134;BME280;7147;59.364;18.018;2022-11-04T08:49:02;121524.47;;;-143.32;100.00
14134;BME280;7147;59.364;18.018;2022-11-04T08:51:32;121688.19;;;-143.32;100.00
14134;BME280;7147;59.364;18.018;2022-11-04T08:53:59;121666.94;;;-143.32;100.00
14134;BME280;7147;59.364;18.018;2022-11-04T08:56:28;121490.47;;;-143.32;100.00
14134;BME280;7147;59.364;18.018;2022-11-04T08:58:56;121794.50;;;-143.32;100.00
14134;BME280;7147;59.364;18.018;2022-11-04T09:01:24;121915.69;;;-143.32;100.00
14134;BME280;7147;59.364;18.018;2022-11-04T09:03:52;121641.41;;;-143.32;100.00
14134;BME280;7147;59.364;18.018;2022-11-04T09:06:22;122032.66;;;-143.32;100.00
14134;BME280;7147;59.364;18.018;2022-11-04T09:08:50;109905.53;;;-143.32;100.00
14134;BME280;7147;59.364;18.018;2022-11-04T09:11:19;116705.84;;;-143.32;100.00
14134;BME280;7147;59.364;18.018;2022-11-04T09:13:46;119649.78;;;-143.32;100.00
14134;BME280;7147;59.364;18.018;2022-11-04T09:16:16;105107.06;;;-143.32;100.00
14134;BME280;7147;59.364;18.018;2022-11-04T09:18:42;122032.66;;;-143.32;100.00
14134;BME280;7147;59.364;18.018;2022-11-04T09:21:10;122032.66;;;-143.32;100.00
14134;BME280;7147;59.364;18.018;2022-11-04T09:23:39;122032.66;;;-143.32;100.00
14134;BME280;7147;59.364;18.018;2022-11-04T09:26:08;122032.66;;;-143.32;100.00
14134;BME280;7147;59.364;18.018;2022-11-04T09:28:35;105388.50;;;-143.32;100.00
14134;BME280;7147;59.364;18.018;2022-11-04T09:31:06;101784.16;;;-143.32;100.00
14134;BME280;7147;59.364;18.018;2022-11-04T09:33:33;86113.72;;;-143.32;100.00
14134;BME280;7147;59.364;18.018;2022-11-04T09:36:00;103585.88;;;-143.32;100.00
14134;BME280;7147;59.364;18.018;2022-11-04T09:38:26;109019.88;;;-143.32;100.00
14134;BME280;7147;59.364;18.018;2022-11-04T09:40:55;113161.91;;;-143.32;100.00
14134;BME280;7147;59.364;18.018;2022-11-04T09:43:35;118300.69;;;-143.32;100.00
14134;BME280;7147;59.364;18.018;2022-11-04T09:46:09;114905.84;;;-143.32;100.00
14134;BME280;7147;59.364;18.018;2022-11-04T09:48:42;115045.91;;;-143.32;100.00
14134;BME280;7147;59.364;18.018;2022-11-04T09:51:10;86027.41;;;-143.32;100.00
14134;BME280;7147;59.364;18.018;2022-11-04T09:53:41;95021.31;;;-143.32;100.00
14134;BME280;7147;59.364;18.018;2022-11-04T09:56:15;98743.25;;;-143.32;100.00
14134;BME280;7147;59.364;18.018;2022-11-04T09:58:44;101192.25;;;-143.32;100.00
14134;BME280;7147;59.364;18.018;2022-11-04T10:01:20;84222.19;;;-143.32;100.00
14134;BME280;7147;59.364;18.018;2022-11-04T10:04:00;104163.38;;;-143.32;100.00
14134;BME280;7147;59.364;18.018;2022-11-04T10:06:36;114205.63;;;-143.32;100.00
14134;BME280;7147;59.364;18.018;2022-11-04T10:09:28;115440.66;;;-143.32;100.00
14134;BME280;7147;59.364;18.018;2022-11-04T10:12:10;113910.72;;;-143.32;100.00
14134;BME280;7147;59.364;18.018;2022-11-04T10:17:56;108990.22;;;-143.32;100.00
14134;BME280;7147;59.364;18.018;2022-11-04T10:20:45;92905.59;;;-143.32;100.00
14134;BME280;7147;59.364;18.018;2022-11-04T10:23:20;104118.97;;;-143.32;100.00
14134;BME280;7147;59.364;18.018;2022-11-04T10:25:48;92464.91;;;-143.32;100.00
14134;BME280;7147;59.364;18.018;2022-11-04T10:28:18;82827.91;;;-143.32;100.00
14134;BME280;7147;59.364;18.018;2022-11-04T10:30:47;116591.19;;;-143.32;100.00
14134;BME280;7147;59.364;18.018;2022-11-04T10:33:22;122032.66;;;-143.32;100.00
14134;BME280;7147;59.364;18.018;2022-11-04T10:35:53;122032.66;;;-143.32;100.00
14134;BME280;7147;59.364;18.018;2022-11-04T10:38:28;122032.66;;;-143.32;100.00
14134;BME280;7147;59.364;18.018;2022-11-04T10:40:58;115504.31;;;-143.32;100.00
14134;BME280;7147;59.364;18.018;2022-11-04T10:43:30;122032.66;;;-143.32;100.00
14134;BME280;7147;59.364;18.018;2022-11-04T10:46:08;122032.66;;;-143.32;100.00
14134;BME280;7147;59.364;18.018;2022-11-04T10:48:44;122032.66;;;-143.32;100.00
14134;BME280;7147;59.364;18.018;2022-11-04T10:51:15;122032.66;;;-143.32;100.00
14134;BME280;7147;59.364;18.018;2022-11-04T10:53:47;122032.66;;;-143.32;100.00
14134;BME280;7147;59.364;18.018;2022-11-04T10:56:18;122032.66;;;-143.32;100.00
14134;BME280;7147;59.364;18.018;2022-11-04T10:58:50;122032.66;;;-143.32;100.00
14134;BME280;7147;59.364;18.018;2022-11-04T11:01:24;122032.66;;;-143.32;100.00
14134;BME280;7147;59.364;18.018;2022-11-04T11:03:52;122032.66;;;-143.32;100.00
14134;BME280;7147;59.364;18.018;2022-11-04T11:06:24;122032.66;;;-143.32;100.00
14134;BME280;7147;59.364;18.018;2022-11-04T11:08:53;122032.66;;;-143.32;100.00
14134;BME280;7147;59.364;18.018;2022-11-04T11:11:41;122032.66;;;-143.32;100.00
14134;BME280;7147;59.364;18.018;2022-11-04T11:14:31;122032.66;;;-143.32;100.00
14134;BME280;7147;59.364;18.018;2022-11-04T11:17:20;122032.66;;;-143.32;100.00
14134;BME280;7147;59.364;18.018;2022-11-04T11:19:52;122032.66;;;-143.32;100.00
14134;BME280;7147;59.364;18.018;2022-11-04T11:22:36;122032.66;;;-143.32;100.00
14134;BME280;7147;59.364;18.018;2022-11-04T11:25:25;122032.66;;;-143.32;100.00
14134;BME280;7147;59.364;18.018;2022-11-04T11:27:54;122032.66;;;-143.32;100.00
14134;BME280;7147;59.364;18.018;2022-11-04T11:30:26;122032.66;;;-143.32;100.00
14134;BME280;7147;59.364;18.018;2022-11-04T11:32:56;122032.66;;;-143.32;100.00
14134;BME280;7147;59.364;18.018;2022-11-04T11:35:32;122032.66;;;-143.32;100.00
14134;BME280;7147;59.364;18.018;2022-11-04T11:38:14;122032.66;;;-143.32;100.00
14134;BME280;7147;59.364;18.018;2022-11-04T11:40:44;121958.22;;;-143.32;100.00
14134;BME280;7147;59.364;18.018;2022-11-04T11:43:20;120748.53;;;-143.32;100.00
14134;BME280;7147;59.364;18.018;2022-11-04T11:45:50;113641.31;;;-143.32;100.00
14134;BME280;7147;59.364;18.018;2022-11-04T11:48:29;112373.00;;;-143.32;100.00
14134;BME280;7147;59.364;18.018;2022-11-04T11:50:57;109892.81;;;-143.32;100.00
14134;BME280;7147;59.364;18.018;2022-11-04T11:53:25;111516.41;;;-143.32;100.00
14134;BME280;7147;59.364;18.018;2022-11-04T11:55:58;119792.16;;;-143.32;100.00
14134;BME280;7147;59.364;18.018;2022-11-04T11:58:35;120030.16;;;-143.32;100.00
14134;BME280;7147;59.364;18.018;2022-11-04T12:01:11;120716.66;;;-143.32;100.00
14134;BME280;7147;59.364;18.018;2022-11-04T12:03:42;121690.31;;;-143.32;100.00
14134;BME280;7147;59.364;18.018;2022-11-04T12:06:21;121107.78;;;-143.32;100.00
14134;BME280;7147;59.364;18.018;2022-11-04T12:09:01;121129.06;;;-143.32;100.00
14134;BME280;7147;59.364;18.018;2022-11-04T12:11:39;121010.00;;;-143.32;100.00
14134;BME280;7147;59.364;18.018;2022-11-04T12:14:13;121114.16;;;-143.32;100.00
14134;BME280;7147;59.364;18.018;2022-11-04T12:16:52;121226.84;;;-143.32;100.00
14134;BME280;7147;59.364;18.018;2022-11-04T12:19:30;121530.84;;;-143.32;100.00
14134;BME280;7147;59.364;18.018;2022-11-04T12:22:06;121541.50;;;-143.32;100.00
14134;BME280;7147;59.364;18.018;2022-11-04T12:24:39;121630.78;;;-143.32;100.00
14134;BME280;7147;59.364;18.018;2022-11-04T12:27:17;121575.50;;;-143.32;100.00
14134;BME280;7147;59.364;18.018;2022-11-04T12:29:59;121528.72;;;-143.32;100.00
14134;BME280;7147;59.364;18.018;2022-11-04T12:32:42;121137.56;;;-143.32;100.00
14134;BME280;7147;59.364;18.018;2022-11-04T12:35:25;121150.31;;;-143.32;100.00
14134;BME280;7147;59.364;18.018;2022-11-04T12:38:03;121290.63;;;-143.32;100.00
14134;BME280;7147;59.364;18.018;2022-11-04T12:40:41;121554.25;;;-143.32;100.00
14134;BME280;7147;59.364;18.018;2022-11-04T12:43:19;121520.22;;;-143.32;100.00
14134;BME280;7147;59.364;18.018;2022-11-04T12:45:56;121552.13;;;-143.32;100.00